Time;durP1;ratioP1;P1;durP2;ratioP2;P2;SDS_P1;SDS_P2;PMS_P1;PMS_P2;Temp;Humidity;BMP_temperature;BMP_pressure;BME280_temperature;BME280_humidity;BME280_pressure;Samples;Min_cycle;Max_cycle;Signal;HPM_P1;HPM_P2
2022/01/23 00:00:57;;;;;;;52.55;26.90;;;2.80;88.60;;;0.71;100.00;97486.84;4934860;28;20065;-68
2022/01/23 00:03:23;;;;;;;54.17;26.52;;;2.80;88.10;;;0.72;100.00;97498.88;4972846;28;20058;-67
2022/01/23 00:05:51;;;;;;;50.67;26.75;;;2.70;88.40;;;0.73;100.00;97489.34;4956002;28;20868;-67
2022/01/23 00:08:20;;;;;;;51.70;26.67;;;2.80;88.20;;;0.73;100.00;97487.56;4955361;28;20137;-67
2022/01/23 00:10:46;;;;;;;50.80;26.55;;;2.70;88.20;;;0.72;100.00;97488.50;4956955;28;20032;-67
2022/01/23 00:20:49;;;;;;;50.83;26.52;;;2.70;88.60;;;0.73;100.00;97478.97;4958365;23;20162;-61
2022/01/23 00:31:29;;;;;;;49.65;25.95;;;2.70;88.40;;;0.73;100.00;97478.97;4919313;28;20046;-62
2022/01/23 00:33:55;;;;;;;45.22;25.85;;;2.70;88.40;;;0.74;100.00;97491.00;4933105;28;20523;-62
2022/01/23 00:36:25;;;;;;;47.70;25.08;;;2.70;88.60;;;0.75;100.00;97477.13;4922112;28;21588;-62
2022/01/23 00:38:51;;;;;;;45.37;24.87;;;2.70;88.40;;;0.74;100.00;97476.28;4927540;28;20038;-62
2022/01/23 00:41:17;;;;;;;48.70;26.40;;;2.80;88.40;;;0.76;100.00;97473.59;4940677;28;20097;-62
2022/01/23 00:43:44;;;;;;;49.55;25.27;;;2.80;88.20;;;0.76;100.00;97478.78;4960482;28;20156;-62
2022/01/23 00:46:34;;;;;;;42.22;24.38;;;2.70;88.40;;;0.78;100.00;97484.69;4903061;28;20118;-62
2022/01/23 00:51:23;;;;;;;42.92;23.77;;;2.90;88.00;;;0.79;100.00;97478.59;4938424;28;20075;-62
2022/01/23 00:53:49;;;;;;;48.83;25.63;;;2.80;88.00;;;0.77;100.00;97472.69;4917519;29;20121;-61
2022/01/23 00:56:15;;;;;;;47.40;25.65;;;2.80;88.10;;;0.78;100.00;97474.34;4936988;28;20039;-61
2022/01/23 00:58:40;;;;;;;44.10;24.73;;;2.80;88.00;;;0.78;100.00;97472.56;4934285;28;20070;-61
2022/01/23 01:01:06;;;;;;;47.00;24.88;;;2.80;88.10;;;0.77;100.00;97470.91;4932953;28;20158;-62
2022/01/23 01:03:33;;;;;;;47.03;25.33;;;2.70;88.10;;;0.77;100.00;97475.25;4955053;28;20113;-61
2022/01/23 01:05:59;;;;;;;43.58;24.58;;;2.70;88.10;;;0.77;100.00;97472.69;4933956;28;20122;-61
2022/01/23 01:08:25;;;;;;;45.55;25.27;;;2.70;88.30;;;0.74;100.00;97475.47;4944325;28;20041;-62
2022/01/23 01:11:07;;;;;;;46.40;25.23;;;2.60;88.30;;;0.75;100.00;97471.94;4938939;28;20095;-61
2022/01/23 01:13:56;;;;;;;41.63;23.63;;;2.70;88.30;;;0.73;100.00;97473.78;4953017;28;20089;-62
2022/01/23 01:37:45;;;;;;;40.92;23.33;;;2.80;87.90;;;0.78;100.00;97490.72;4940607;28;20033;-62
2022/01/23 01:40:11;;;;;;;38.47;22.15;;;2.80;87.90;;;0.79;100.00;97488.94;4949865;28;20066;-62
2022/01/23 01:42:37;;;;;;;38.58;22.20;;;2.80;87.90;;;0.79;100.00;97491.53;4927794;28;20059;-62
2022/01/23 01:45:03;;;;;;;38.75;22.67;;;2.80;87.60;;;0.79;100.00;97494.13;4923329;28;20044;-62
2022/01/23 01:47:29;;;;;;;43.90;23.25;;;2.80;87.80;;;0.78;100.00;97492.47;4930808;28;20036;-63
2022/01/23 01:49:55;;;;;;;44.80;23.83;;;2.80;87.90;;;0.78;100.00;97492.47;4940874;28;20035;-62
2022/01/23 01:52:20;;;;;;;42.08;22.30;;;2.80;87.90;;;0.78;100.00;97487.28;4934210;28;20032;-62
2022/01/23 01:54:48;;;;;;;46.20;25.25;;;2.80;88.00;;;0.77;100.00;97480.44;4924053;28;20526;-62
2022/01/23 01:57:15;;;;;;;39.92;23.45;;;2.80;87.90;;;0.76;100.00;97494.31;4921579;28;20122;-62
2022/01/23 02:10:25;;;;;;;41.08;22.70;;;2.70;88.00;;;0.74;100.00;97496.19;4929013;29;20538;-62
2022/01/23 02:51:00;;;;;;;44.35;23.15;;;2.90;87.40;;;0.83;100.00;97485.25;4932120;28;20066;-62
2022/01/23 02:56:21;;;;;;;42.53;22.58;;;2.90;87.60;;;0.84;100.00;97476.53;4911611;28;20045;-62
2022/01/23 02:58:59;;;;;;;39.28;22.70;;;2.90;87.40;;;0.86;100.00;97480.69;4948088;28;20039;-61
2022/01/23 03:01:29;;;;;;;41.97;23.67;;;3.00;87.40;;;0.87;100.00;97482.34;4969782;28;20047;-62
2022/01/23 03:04:01;;;;;;;42.33;22.48;;;2.90;87.10;;;0.87;100.00;97489.28;4918852;28;20519;-62
2022/01/23 03:28:20;;;;;;;41.00;23.42;;;3.00;87.30;;;0.91;100.00;97493.38;4928207;28;20058;-62
2022/01/23 03:33:33;;;;;;;38.42;22.35;;;3.00;87.00;;;0.91;100.00;97480.44;4935441;28;20082;-62
2022/01/23 03:35:59;;;;;;;42.30;22.98;;;3.00;87.00;;;0.91;100.00;97483.84;4930672;28;20031;-63
2022/01/23 03:38:25;;;;;;;42.22;23.50;;;3.10;86.80;;;0.93;100.00;97486.34;4919968;28;20034;-62
2022/01/23 03:40:50;;;;;;;41.78;22.90;;;3.10;86.80;;;0.93;100.00;97473.41;4957138;28;20043;-62
2022/01/23 03:43:22;;;;;;;44.22;23.10;;;3.00;86.90;;;0.93;100.00;97473.41;4938863;28;20526;-62
2022/01/23 03:50:52;;;;;;;43.05;22.05;;;3.00;86.90;;;0.94;100.00;97498.38;4931736;28;20035;-62
2022/01/23 03:53:18;;;;;;;39.75;23.05;;;3.00;87.00;;;0.96;100.00;97501.69;4921392;28;20415;-62
2022/01/23 03:55:44;;;;;;;37.67;22.35;;;3.10;86.90;;;0.97;100.00;97503.38;4914411;29;20494;-62
2022/01/23 03:58:09;;;;;;;39.28;21.75;;;3.10;86.70;;;0.99;100.00;97505.84;4933528;28;20344;-62
2022/01/23 04:00:35;;;;;;;35.75;21.73;;;3.10;86.70;;;0.98;100.00;97505.03;4946679;28;20051;-62
2022/01/23 04:03:01;;;;;;;35.97;21.23;;;3.10;86.60;;;0.98;100.00;97499.84;4913045;28;20118;-63
2022/01/23 04:05:27;;;;;;;31.13;17.23;;;3.00;86.60;;;0.99;100.00;97509.28;4943712;28;20063;-62
2022/01/23 04:07:52;;;;;;;40.13;22.13;;;3.00;86.60;;;0.99;100.00;97513.63;4945621;28;20130;-62
2022/01/23 04:10:21;;;;;;;36.85;21.95;;;3.10;86.70;;;0.98;100.00;97510.19;4947180;28;20113;-62
2022/01/23 04:20:31;;;;;;;38.45;22.38;;;3.10;86.50;;;1.00;100.00;97500.56;4943821;28;20063;-61
2022/01/23 04:34:11;;;;;;;36.72;21.55;;;3.10;86.60;;;1.04;100.00;97498.63;4926641;28;20057;-61
2022/01/23 05:01:28;;;;;;;35.92;19.55;;;3.30;86.00;;;1.10;100.00;97517.19;4927343;28;20554;-62
2022/01/23 05:06:47;;;;;;;41.25;22.60;;;3.30;85.70;;;1.10;100.00;97499.06;4925849;28;20514;-62
2022/01/23 05:09:14;;;;;;;42.08;25.42;;;3.30;85.90;;;1.10;100.00;97504.25;4954112;28;20499;-61
2022/01/23 05:11:48;;;;;;;38.88;23.52;;;3.30;86.00;;;1.13;100.00;97498.91;4952614;28;20051;-61
2022/01/23 05:14:13;;;;;;;35.97;22.25;;;3.30;85.80;;;1.15;100.00;97496.22;4948760;28;20065;-61
2022/01/23 05:16:39;;;;;;;34.03;20.13;;;3.40;85.80;;;1.15;100.00;97501.38;4922706;28;20035;-61
2022/01/23 05:19:06;;;;;;;41.38;24.70;;;3.40;85.60;;;1.15;100.00;97489.25;4956299;28;20052;-61
2022/01/23 05:24:07;;;;;;;38.28;21.55;;;3.20;85.60;;;1.08;100.00;97484.53;4944149;28;20039;-61
2022/01/23 05:26:39;;;;;;;37.97;20.85;;;3.10;86.10;;;1.06;100.00;97486.41;4954637;28;20578;-61
2022/01/23 05:29:05;;;;;;;64.30;36.05;;;3.10;86.20;;;1.07;100.00;97488.06;4920997;28;20035;-61
2022/01/23 05:31:31;;;;;;;42.75;25.23;;;3.10;86.00;;;1.06;100.00;97491.59;4965120;28;20058;-61
2022/01/23 05:33:57;;;;;;;34.45;19.38;;;3.20;86.20;;;1.08;100.00;97511.28;4934399;28;20539;-61
2022/01/23 05:36:23;;;;;;;34.42;19.95;;;3.20;86.00;;;1.07;100.00;97514.81;4944246;28;20467;-61
2022/01/23 05:38:48;;;;;;;33.35;19.10;;;3.20;85.90;;;1.09;100.00;97523.31;4915652;28;20582;-61
2022/01/23 05:41:14;;;;;;;32.05;20.17;;;3.30;85.80;;;1.10;100.00;97524.13;4973962;28;20046;-61
2022/01/23 05:43:40;;;;;;;34.60;19.23;;;3.30;85.70;;;1.11;100.00;97518.03;4938105;28;20587;-62
2022/01/23 05:46:06;;;;;;;31.35;19.35;;;3.40;85.60;;;1.12;100.00;97511.91;4949475;28;20582;-62
2022/01/23 05:48:31;;;;;;;30.15;19.30;;;3.40;85.70;;;1.12;100.00;97507.56;4908650;28;20606;-63
2022/01/23 05:50:57;;;;;;;35.60;20.15;;;3.20;85.50;;;1.11;100.00;97511.09;4959108;28;20098;-62
2022/01/23 05:53:23;;;;;;;34.67;19.52;;;3.30;85.70;;;1.12;100.00;97523.13;4935722;28;20047;-63
2022/01/23 05:55:48;;;;;;;33.60;18.50;;;3.30;85.60;;;1.13;100.00;97535.19;4922821;28;20094;-63
2022/01/23 05:58:14;;;;;;;36.30;19.20;;;3.30;85.60;;;1.12;100.00;97538.66;4941428;28;20038;-62
2022/01/23 06:00:40;;;;;;;33.67;19.02;;;3.30;85.40;;;1.11;100.00;97537.00;4934845;28;20147;-63
2022/01/23 06:03:06;;;;;;;32.25;19.13;;;3.30;85.80;;;1.13;100.00;97534.31;4954946;28;20038;-62
2022/01/23 06:05:31;;;;;;;34.85;19.40;;;3.30;85.70;;;1.11;100.00;97531.81;4899192;29;20032;-63
2022/01/23 06:07:57;;;;;;;30.88;19.63;;;3.20;85.90;;;1.12;100.00;97543.84;4911990;28;20086;-62
2022/01/23 06:10:25;;;;;;;33.72;18.83;;;3.20;85.70;;;1.12;100.00;97549.03;4927883;28;20074;-65
2022/01/23 06:12:53;;;;;;;31.23;18.85;;;3.30;85.60;;;1.13;100.00;97539.50;4939018;28;20035;-63
2022/01/23 06:15:19;;;;;;;32.83;18.83;;;3.30;85.40;;;1.13;100.00;97544.69;4917096;28;20501;-63
2022/01/23 06:17:45;;;;;;;32.13;18.75;;;3.30;85.50;;;1.14;100.00;97541.19;4924335;28;20044;-63
2022/01/23 06:20:12;;;;;;;31.27;18.52;;;3.30;85.40;;;1.14;100.00;97546.38;4882427;29;20038;-63
2022/01/23 06:22:38;;;;;;;35.80;21.05;;;3.30;85.20;;;1.11;100.00;97537.00;4936542;28;20469;-65
2022/01/23 06:25:08;;;;;;;30.80;19.17;;;3.20;85.40;;;1.11;100.00;97549.13;4931819;29;20043;-63
2022/01/23 06:27:33;;;;;;;31.75;19.38;;;3.30;85.60;;;1.11;100.00;97542.19;4933970;28;20038;-60
2022/01/23 06:29:59;;;;;;;32.72;20.38;;;3.20;85.60;;;1.09;100.00;97540.63;4944442;28;20126;-60
2022/01/23 06:32:25;;;;;;;32.33;19.63;;;3.20;85.70;;;1.09;100.00;97544.03;4950859;28;20023;-61
2022/01/23 06:34:50;;;;;;;34.25;20.95;;;3.30;85.60;;;1.10;100.00;97550.88;4948188;28;20057;-61
2022/01/23 06:37:16;;;;;;;31.20;19.42;;;3.30;85.50;;;1.11;100.00;97552.56;4956487;28;20085;-65
2022/01/23 06:39:43;;;;;;;32.30;19.98;;;3.30;85.40;;;1.11;100.00;97549.97;4911400;28;20129;-62
2022/01/23 06:42:09;;;;;;;66.60;37.25;;;3.30;85.20;;;1.12;100.00;97543.00;4949152;28;20520;-62
2022/01/23 06:44:36;;;;;;;75.63;45.47;;;3.30;85.50;;;1.14;100.00;97542.03;4964085;28;20098;-62
2022/01/23 06:47:02;;;;;;;45.80;27.63;;;3.40;85.50;;;1.16;100.00;97545.34;4916792;28;20482;-61
2022/01/23 06:49:27;;;;;;;32.90;19.98;;;3.40;85.50;;;1.16;100.00;97545.34;4916359;29;20039;-62
2022/01/23 06:51:53;;;;;;;32.03;20.40;;;3.40;85.20;;;1.17;100.00;97541.00;4932176;28;20479;-62
2022/01/23 06:54:19;;;;;;;35.88;20.55;;;3.40;85.10;;;1.19;100.00;97552.09;4915254;29;20109;-62
2022/01/23 06:56:45;;;;;;;32.72;19.42;;;3.40;85.10;;;1.19;100.00;97547.75;4930390;28;20031;-61
2022/01/23 06:59:11;;;;;;;31.23;18.67;;;3.40;85.10;;;1.20;100.00;97562.38;4937913;28;20043;-62
2022/01/23 07:01:36;;;;;;;33.63;19.92;;;3.40;85.10;;;1.21;100.00;97553.66;4916491;29;20141;-61
2022/01/23 07:04:02;;;;;;;33.13;19.95;;;3.40;85.20;;;1.21;100.00;97545.06;4915574;29;20043;-62
2022/01/23 07:06:28;;;;;;;32.75;19.65;;;3.50;85.10;;;1.21;100.00;97547.66;4932135;28;20035;-62
2022/01/23 07:08:53;;;;;;;33.35;19.88;;;3.50;85.20;;;1.21;100.00;97553.66;4915501;28;20496;-64
2022/01/23 07:11:19;;;;;;;34.67;20.30;;;3.40;85.10;;;1.20;100.00;97557.19;4931709;28;20043;-64
2022/01/23 07:13:45;;;;;;;35.88;21.52;;;3.40;85.20;;;1.21;100.00;97555.41;4964450;28;20039;-64
2022/01/23 07:16:11;;;;;;;32.22;21.10;;;3.30;85.30;;;1.20;100.00;97564.13;4927164;28;20043;-63
2022/01/23 07:18:36;;;;;;;34.67;21.13;;;3.40;85.40;;;1.20;100.00;97567.56;4920510;28;20035;-66
2022/01/23 07:21:02;;;;;;;36.50;21.25;;;3.40;85.20;;;1.20;100.00;97566.72;4947604;28;20118;-66
2022/01/23 07:23:28;;;;;;;36.72;20.75;;;3.20;85.30;;;1.21;100.00;97578.75;4932228;28;20496;-64
2022/01/23 07:25:54;;;;;;;34.03;20.45;;;3.20;85.60;;;1.19;100.00;97584.03;4944119;28;20039;-66
2022/01/23 07:28:23;;;;;;;34.33;20.92;;;3.20;85.70;;;1.20;100.00;97577.91;4931895;28;20102;-64
2022/01/23 07:30:54;;;;;;;33.30;20.90;;;3.40;85.50;;;1.21;100.00;97584.75;4943923;28;20094;-63
2022/01/23 07:33:20;;;;;;;36.20;21.65;;;3.40;85.40;;;1.20;100.00;97583.09;4961507;28;20043;-64
2022/01/23 07:35:47;;;;;;;39.75;22.00;;;3.30;85.30;;;1.22;100.00;97591.63;4947648;28;20039;-65
2022/01/23 07:38:16;;;;;;;35.97;20.55;;;3.40;85.40;;;1.25;100.00;97600.13;4931786;28;20039;-64
2022/01/23 07:40:46;;;;;;;37.35;20.70;;;3.50;85.20;;;1.26;100.00;97606.97;4943314;28;20047;-62
2022/01/23 07:43:12;;;;;;;33.20;19.95;;;3.50;85.10;;;1.28;100.00;97616.31;4928487;28;20135;-62
2022/01/23 07:45:38;;;;;;;54.92;33.05;;;3.50;85.00;;;1.30;100.00;97613.63;4931244;28;20035;-63
2022/01/23 07:48:04;;;;;;;85.18;53.03;;;3.50;85.50;;;1.35;100.00;97614.16;4923949;29;20047;-61
2022/01/23 07:50:30;;;;;;;45.35;26.13;;;3.60;85.60;;;1.36;100.00;97618.44;4930607;28;20550;-62
2022/01/23 07:52:56;;;;;;;40.72;26.48;;;3.60;85.10;;;1.39;100.00;97624.28;4916387;29;20464;-63
2022/01/23 07:55:21;;;;;;;38.47;22.30;;;3.60;84.90;;;1.38;100.00;97619.19;4930657;28;20525;-63
2022/01/23 07:57:47;;;;;;;36.55;21.92;;;3.60;84.80;;;1.40;100.00;97625.13;4947552;28;20046;-62
2022/01/23 08:00:13;;;;;;;41.78;23.00;;;3.60;85.00;;;1.41;100.00;97631.97;4960369;28;20044;-67
2022/01/23 08:02:39;;;;;;;37.05;22.33;;;3.60;84.90;;;1.43;100.00;97625.75;4911019;28;20028;-67
2022/01/23 08:05:05;;;;;;;38.08;23.00;;;3.70;84.70;;;1.45;100.00;97628.25;4938832;28;20531;-67
2022/01/23 08:07:31;;;;;;;42.47;22.98;;;3.60;84.70;;;1.46;100.00;97635.09;4918921;29;20066;-66
2022/01/23 08:10:00;;;;;;;36.38;21.85;;;3.70;84.60;;;1.48;100.00;97643.63;4950755;28;20047;-64
2022/01/23 08:12:27;;;;;;;34.35;21.13;;;3.70;84.50;;;1.48;100.00;97641.84;4954703;28;20093;-63
2022/01/23 08:14:53;;;;;;;37.47;21.35;;;3.60;84.30;;;1.49;100.00;97643.50;4939903;28;20448;-65
2022/01/23 08:17:19;;;;;;;36.92;21.88;;;3.70;84.60;;;1.54;100.00;97658.78;4965260;28;20043;-67
2022/01/23 08:19:46;;;;;;;32.38;20.65;;;3.80;84.30;;;1.56;100.00;97645.72;4947350;28;20059;-65
2022/01/23 08:22:11;;;;;;;32.55;20.48;;;3.90;84.00;;;1.59;100.00;97641.19;4931809;28;20040;-63
2022/01/23 08:24:37;;;;;;;36.60;21.48;;;4.00;83.90;;;1.63;100.00;97640.06;4948357;28;20048;-61
2022/01/23 08:27:04;;;;;;;34.72;19.95;;;4.00;83.90;;;1.68;100.00;97648.41;4947181;28;20566;-61
2022/01/23 08:29:29;;;;;;;31.45;19.40;;;4.10;83.70;;;1.71;100.00;97650.78;4942160;28;20046;-61
2022/01/23 08:31:55;;;;;;;32.13;19.27;;;4.10;83.40;;;1.74;100.00;97644.56;4934275;28;20122;-61
2022/01/23 08:34:21;;;;;;;32.90;19.85;;;4.10;83.40;;;1.79;100.00;97643.34;4944853;28;20039;-62
2022/01/23 08:36:47;;;;;;;31.52;19.38;;;4.20;83.20;;;1.82;100.00;97648.38;4968830;28;20126;-61
2022/01/23 08:39:14;;;;;;;31.20;18.92;;;4.20;83.10;;;1.88;100.00;97646.31;4950155;28;20043;-64
2022/01/23 08:41:49;;;;;;;31.55;19.55;;;4.20;83.00;;;1.92;100.00;97637.41;4929325;28;20051;-64
2022/01/23 08:44:19;;;;;;;30.55;19.13;;;4.30;82.80;;;1.97;100.00;97637.94;4922200;29;20040;-64
2022/01/23 08:46:45;;;;;;;30.95;20.40;;;4.30;82.80;;;2.02;100.00;97648.84;4932704;28;20039;-64
2022/01/23 08:49:11;;;;;;;33.47;21.42;;;4.40;82.70;;;2.06;100.00;97640.78;4899867;29;20146;-65
2022/01/23 08:51:37;;;;;;;34.35;20.92;;;4.40;82.50;;;2.09;99.83;97640.59;4948947;28;20067;-64
2022/01/23 08:54:03;;;;;;;31.65;20.77;;;4.50;82.40;;;2.13;100.00;97636.03;4947800;28;20118;-64
2022/01/23 08:56:30;;;;;;;29.42;19.67;;;4.60;82.30;;;2.18;99.53;97633.97;4920215;29;20103;-64
2022/01/23 08:58:56;;;;;;;29.02;18.73;;;4.60;81.80;;;2.24;99.08;97630.13;4928526;28;20610;-64
2022/01/23 09:01:23;;;;;;;30.58;19.95;;;4.60;81.40;;;2.29;98.83;97633.28;4949129;28;20039;-64
2022/01/23 09:03:49;;;;;;;26.10;18.75;;;4.70;81.40;;;2.33;98.52;97635.56;4914518;29;20031;-64
2022/01/23 09:06:15;;;;;;;31.73;20.30;;;4.70;81.30;;;2.36;98.82;97632.75;4960368;28;20080;-64
2022/01/23 09:08:41;;;;;;;32.05;21.10;;;4.70;81.10;;;2.40;98.53;97631.63;4951208;28;20130;-65
2022/01/23 09:11:27;;;;;;;30.48;20.90;;;4.80;81.20;;;2.45;98.12;97632.16;4947333;28;20074;-64
2022/01/23 09:14:06;;;;;;;29.60;21.83;;;4.90;80.80;;;2.51;98.70;97643.09;4961518;28;20198;-66
2022/01/23 09:16:53;;;;;;;29.15;21.15;;;4.90;80.90;;;2.57;97.56;97645.28;4929329;28;20039;-66
2022/01/23 09:19:19;;;;;;;34.33;22.45;;;4.90;81.10;;;2.61;97.90;97641.53;4943865;28;20044;-64
2022/01/23 09:21:45;;;;;;;32.55;23.35;;;5.10;80.50;;;2.68;98.16;97643.63;4924261;29;20491;-64
2022/01/23 09:24:11;;;;;;;30.77;21.15;;;5.20;80.30;;;2.76;97.97;97643.13;4947872;28;20035;-65
2022/01/23 09:26:37;;;;;;;29.52;20.98;;;5.40;80.00;;;2.84;97.46;97637.41;4931282;28;20055;-64
2022/01/23 09:29:13;;;;;;;31.75;23.33;;;5.40;79.50;;;2.93;97.51;97631.56;4932644;28;20448;-65
2022/01/23 09:32:12;;;;;;;28.85;20.60;;;5.50;79.20;;;3.00;96.80;97632.84;4918547;29;20039;-64
2022/01/23 09:34:33;;;;;;;29.88;21.67;;;5.60;78.60;;;3.06;96.17;97622.84;4959093;28;20105;-64
2022/01/23 09:37:02;;;;;;;26.45;20.05;;;5.60;78.40;;;3.15;96.08;97633.53;4964382;28;20479;-65
2022/01/23 09:39:28;;;;;;;27.73;19.98;;;5.70;78.30;;;3.22;95.87;97632.19;4930437;28;20035;-63
2022/01/23 09:41:59;;;;;;;25.42;20.27;;;5.90;77.50;;;3.34;95.11;97639.97;4916257;29;20047;-64
2022/01/23 09:44:24;;;;;;;28.08;19.65;;;6.00;77.20;;;3.42;94.92;97631.66;4945320;28;20439;-64
2022/01/23 09:46:50;;;;;;;26.25;19.23;;;6.20;76.70;;;3.52;95.24;97635.25;4930646;28;20106;-64
2022/01/23 09:49:17;;;;;;;24.70;19.55;;;6.30;76.30;;;3.62;94.33;97631.09;4929537;29;20498;-64
2022/01/23 09:51:44;;;;;;;25.23;18.67;;;6.40;75.80;;;3.75;94.21;97632.81;4936046;29;20206;-64
2022/01/23 09:54:12;;;;;;;23.25;18.98;;;6.60;75.10;;;3.84;93.60;97640.78;4929075;29;20055;-65
2022/01/23 09:56:40;;;;;;;25.33;19.05;;;6.60;74.80;;;3.88;92.65;97637.06;4961835;28;20511;-64
2022/01/23 09:59:08;;;;;;;57.70;41.30;;;6.30;75.00;;;3.95;92.64;97643.47;4948112;28;20046;-64
2022/01/23 10:01:34;;;;;;;25.98;21.23;;;6.50;76.10;;;4.03;92.26;97639.47;4932449;28;20043;-64
2022/01/23 10:04:00;;;;;;;23.50;19.63;;;6.50;75.00;;;4.05;91.46;97643.63;4948180;28;20750;-64
2022/01/23 10:06:26;;;;;;;22.40;18.15;;;6.50;74.80;;;4.10;90.84;97645.91;4950210;28;20043;-64
2022/01/23 10:08:51;;;;;;;21.77;18.13;;;6.60;74.40;;;4.14;90.64;97639.53;4961983;28;20042;-68
2022/01/23 10:11:17;;;;;;;21.70;18.65;;;6.60;73.80;;;4.16;90.13;97635.06;4930161;28;20047;-64
2022/01/23 10:13:43;;;;;;;23.33;19.25;;;6.60;73.70;;;4.17;89.47;97634.09;4933132;29;20521;-64
2022/01/23 10:16:09;;;;;;;23.77;19.23;;;6.60;73.90;;;4.19;89.16;97640.88;4929508;29;20039;-64
2022/01/23 10:18:35;;;;;;;23.20;18.85;;;6.60;74.50;;;4.21;89.42;97640.75;4948733;28;20420;-65
2022/01/23 10:21:01;;;;;;;22.73;18.88;;;6.70;74.00;;;4.25;89.65;97639.59;4932704;28;20043;-64
2022/01/23 10:23:27;;;;;;;23.48;19.40;;;6.70;73.50;;;4.26;88.82;97631.66;4961698;28;20070;-64
2022/01/23 10:25:53;;;;;;;22.65;19.30;;;6.70;73.40;;;4.29;89.17;97631.44;4946368;28;20036;-64
2022/01/23 10:28:26;;;;;;;26.63;22.73;;;6.80;73.60;;;4.33;88.20;97636.44;4948579;28;20053;-64
2022/01/23 10:30:56;;;;;;;24.52;21.20;;;6.70;73.90;;;4.33;87.83;97626.03;4901507;28;20046;-65
2022/01/23 10:33:35;;;;;;;23.50;19.63;;;6.60;73.60;;;4.33;87.87;97631.22;4930880;28;20040;-64
2022/01/23 10:36:08;;;;;;;24.30;20.00;;;6.60;73.80;;;4.34;87.90;97630.28;4948199;28;20045;-64
2022/01/23 10:38:50;;;;;;;23.95;19.38;;;6.60;73.70;;;4.32;86.97;97629.56;4913782;28;20047;-62
2022/01/23 10:47:18;;;;;;;23.60;18.65;;;6.70;73.20;;;4.30;87.92;97627.91;4937223;28;20042;-62
2022/01/23 10:49:55;;;;;;;24.35;20.08;;;6.70;73.50;;;4.33;86.96;97626.03;4948383;28;20047;-62
2022/01/23 10:52:42;;;;;;;25.40;19.95;;;6.70;73.40;;;4.36;87.22;97625.78;4943828;28;20078;-62
2022/01/23 10:55:11;;;;;;;23.15;18.67;;;6.80;73.50;;;4.40;87.72;97622.00;4947584;28;20122;-62
2022/01/23 10:57:38;;;;;;;23.20;18.98;;;6.90;73.50;;;4.42;87.57;97620.13;4949830;28;20046;-62
2022/01/23 11:00:10;;;;;;;23.75;20.40;;;6.90;72.90;;;4.45;86.90;97625.09;4963544;28;20035;-62
2022/01/23 11:02:42;;;;;;;28.23;23.13;;;6.80;73.10;;;4.49;86.75;97623.91;4919145;28;20039;-62
2022/01/23 11:05:11;;;;;;;22.70;18.75;;;6.80;73.30;;;4.49;87.01;97621.31;4910249;29;20112;-62
2022/01/23 11:07:41;;;;;;;21.80;18.33;;;6.90;73.30;;;4.52;86.10;97626.28;4932573;28;21599;-64
2022/01/23 11:10:12;;;;;;;21.60;18.63;;;6.90;72.20;;;4.53;86.33;97622.78;4931751;28;20039;-62
2022/01/23 11:17:55;;;;;;;23.50;19.70;;;6.80;72.90;;;4.50;86.25;97617.75;4934904;28;20046;-62
2022/01/23 11:20:49;;;;;;;23.10;18.58;;;6.80;72.50;;;4.51;85.38;97616.81;4931271;28;20499;-63
2022/01/23 11:23:30;;;;;;;23.52;19.13;;;6.80;73.10;;;4.53;85.49;97617.56;4947317;28;20054;-64
2022/01/23 11:25:56;;;;;;;23.60;19.73;;;6.80;72.70;;;4.53;86.54;97610.56;4947412;28;20507;-65
2022/01/23 11:28:39;;;;;;;23.55;19.50;;;6.90;72.70;;;4.52;84.83;97610.66;4949300;28;20045;-64
2022/01/23 11:31:06;;;;;;;24.02;19.42;;;6.80;73.00;;;4.51;85.96;97606.41;4946748;28;20054;-64
2022/01/23 11:33:32;;;;;;;24.58;19.63;;;6.90;72.70;;;4.51;85.86;97607.22;4947337;28;20039;-64
2022/01/23 11:35:58;;;;;;;23.58;19.58;;;6.90;72.70;;;4.53;86.21;97618.41;4912306;29;20544;-66
2022/01/23 11:38:25;;;;;;;23.02;19.17;;;7.00;72.50;;;4.54;86.50;97606.19;4961342;28;20071;-65
2022/01/23 11:54:49;;;;;;;23.15;19.00;;;7.00;72.60;;;4.58;85.35;97597.19;4941435;28;20034;-60
2022/01/23 11:57:34;;;;;;;22.65;18.58;;;6.90;72.40;;;4.58;84.10;97595.41;4923647;29;20062;-61
2022/01/23 12:00:03;;;;;;;23.92;18.52;;;7.00;72.30;;;4.58;85.00;97589.38;4953260;28;20459;-62
2022/01/23 12:02:36;;;;;;;25.00;19.63;;;6.90;72.10;;;4.60;85.46;97593.53;4926583;28;20114;-62
2022/01/23 12:05:11;;;;;;;24.15;19.50;;;7.00;71.90;;;4.63;84.53;97592.47;4953278;28;20043;-63
2022/01/23 12:07:37;;;;;;;23.13;18.88;;;7.00;72.30;;;4.61;84.81;97581.31;4966285;28;20851;-64
2022/01/23 12:10:32;;;;;;;22.88;18.13;;;6.90;72.50;;;4.64;84.42;97583.69;4919354;29;20060;-65
2022/01/23 12:13:56;;;;;;;23.13;18.55;;;7.10;72.20;;;4.65;84.67;97577.53;4939401;28;20097;-67
2022/01/23 12:18:49;;;;;;;24.83;19.25;;;7.00;71.90;;;4.63;85.54;97586.41;4904608;28;20051;-67
2022/01/23 12:21:31;;;;;;;25.85;19.80;;;7.00;72.00;;;4.58;83.75;97585.00;4937859;28;20626;-64
2022/01/23 12:24:04;;;;;;;23.83;19.45;;;6.80;72.40;;;4.55;84.75;97587.00;4921588;29;20050;-64
2022/01/23 12:26:29;;;;;;;29.83;23.25;;;6.80;72.40;;;4.54;84.71;97593.16;4922604;29;20043;-64
2022/01/23 12:28:55;;;;;;;41.33;32.05;;;6.80;73.10;;;4.55;85.38;97595.66;4937233;28;20038;-64
2022/01/23 12:31:24;;;;;;;42.35;33.92;;;6.80;73.40;;;4.56;85.51;97591.28;4905511;29;20051;-63
2022/01/23 12:33:56;;;;;;;27.80;22.23;;;6.90;73.10;;;4.56;84.73;97591.28;4954127;28;20242;-66
2022/01/23 12:36:24;;;;;;;26.13;20.00;;;6.90;72.70;;;4.57;85.55;97595.53;4944177;28;20487;-64
2022/01/23 12:38:56;;;;;;;23.92;19.98;;;6.90;72.90;;;4.57;85.00;97590.31;4954855;28;20059;-66
2022/01/23 12:41:30;;;;;;;25.10;19.85;;;6.80;73.00;;;4.55;84.51;97595.66;4921100;29;20095;-65
2022/01/23 12:43:58;;;;;;;25.55;20.13;;;6.70;73.00;;;4.53;84.97;97594.09;4965980;28;20051;-64
2022/01/23 12:46:54;;;;;;;24.80;19.48;;;6.70;73.10;;;4.51;85.04;97595.97;4978456;28;20138;-65
2022/01/23 12:49:34;;;;;;;25.58;19.40;;;6.60;73.40;;;4.47;85.29;97597.16;4933480;28;20535;-62
2022/01/23 12:52:05;;;;;;;22.17;18.17;;;6.60;73.50;;;4.47;84.47;97586.72;4945565;28;20051;-62
2022/01/23 12:54:33;;;;;;;21.20;18.27;;;6.60;73.60;;;4.46;85.13;97582.47;4955628;28;20066;-64
2022/01/23 12:57:15;;;;;;;25.15;20.50;;;6.70;73.30;;;4.49;84.91;97590.03;4939909;28;20040;-63
2022/01/23 12:59:43;;;;;;;28.40;22.20;;;6.60;72.60;;;4.46;84.84;97590.28;4940017;28;20454;-62
2022/01/23 13:02:14;;;;;;;28.40;21.83;;;6.70;72.50;;;4.48;84.71;97583.19;4950245;28;20042;-63
2022/01/23 13:04:46;;;;;;;24.48;19.27;;;6.80;72.20;;;4.50;84.34;97583.88;4945266;28;20072;-63
2022/01/23 13:07:26;;;;;;;20.95;16.80;;;6.80;71.80;;;4.53;84.32;97573.25;4935649;28;20160;-63
2022/01/23 13:09:58;;;;;;;21.30;16.95;;;7.00;71.30;;;4.60;83.58;97582.28;4932701;28;20042;-63
2022/01/23 13:15:21;;;;;;;26.73;21.27;;;7.20;70.70;;;4.73;83.46;97582.16;4959231;28;20039;-63
2022/01/23 13:17:57;;;;;;;39.87;31.70;;;7.30;70.30;;;4.78;83.18;97580.88;4917485;29;20070;-64
2022/01/23 13:35:06;;;;;;;18.25;15.07;;;7.50;69.90;;;5.00;82.64;97559.22;4949063;28;20400;-64
2022/01/23 13:37:36;;;;;;;19.48;15.68;;;7.60;68.80;;;5.05;81.84;97557.06;4949767;28;20027;-63
2022/01/23 13:40:16;;;;;;;20.50;17.05;;;7.70;68.10;;;5.10;81.16;97552.31;4929439;29;20337;-63
2022/01/23 13:50:03;;;;;;;20.90;16.45;;;8.10;66.90;;;5.36;80.41;97557.28;4959114;28;20051;-63
2022/01/23 14:02:35;;;;;;;17.77;14.57;;;13.60;49.40;;;7.78;76.61;97541.34;4949241;28;20126;-64
2022/01/23 14:05:20;;;;;;;17.80;14.88;;;14.50;46.70;;;8.16;74.43;97535.28;4939106;28;20054;-62
2022/01/23 14:07:47;;;;;;;32.25;27.42;;;13.70;47.10;;;8.41;76.11;97542.63;4946606;28;20039;-62
2022/01/23 14:10:34;;;;;;;18.15;14.85;;;13.50;47.80;;;8.59;70.99;97538.28;4947600;28;20043;-63
2022/01/23 14:13:15;;;;;;;16.63;14.15;;;13.10;48.20;;;8.58;70.99;97541.06;4899398;29;20044;-62
2022/01/23 14:15:45;;;;;;;;;;;12.50;50.70;;;8.50;69.53;97533.06;4932418;28;20531;-63